Time;durP1;ratioP1;P1;durP2;ratioP2;P2;SDS_P1;SDS_P2;PMS_P1;PMS_P2;Temp;Humidity;BMP_temperature;BMP_pressure;BME280_temperature;BME280_humidity;BME280_pressure;Samples;Min_cycle;Max_cycle;Signal;HPM_P1;HPM_P2
2021/01/09 00:00:13;;;;;;;22.60;19.70;;;;;;;;;;4995523;28;20417;-76
2021/01/09 00:02:41;;;;;;;24.15;20.63;;;;;;;;;;4991388;28;20380;-75
2021/01/09 00:05:08;;;;;;;22.33;19.23;;;;;;;;;;4989739;28;20373;-77
2021/01/09 00:07:34;;;;;;;24.00;20.45;;;;;;;;;;4990090;28;20376;-76
2021/01/09 00:10:01;;;;;;;22.52;19.60;;;;;;;;;;4989645;28;20369;-76
2021/01/09 00:12:27;;;;;;;22.85;19.95;;;;;;;;;;4989337;28;20906;-77
2021/01/09 00:14:54;;;;;;;21.92;18.17;;;;;;;;;;4990904;28;20427;-76
2021/01/09 00:17:20;;;;;;;21.85;19.45;;;;;;;;;;4991213;28;20456;-76
2021/01/09 00:19:46;;;;;;;23.38;19.77;;;;;;;;;;4989829;28;20369;-76
2021/01/09 00:22:12;;;;;;;22.65;19.63;;;;;;;;;;4991211;28;20397;-76
2021/01/09 00:24:39;;;;;;;21.30;18.77;;;;;;;;;;4989851;28;20373;-77
2021/01/09 00:27:09;;;;;;;21.92;19.40;;;;;;;;;;4989894;28;20380;-76
2021/01/09 00:29:36;;;;;;;24.08;19.80;;;;;;;;;;4989637;28;20383;-76
2021/01/09 00:32:02;;;;;;;23.60;20.00;;;;;;;;;;4989440;28;20428;-76
2021/01/09 00:34:28;;;;;;;24.33;20.05;;;;;;;;;;4990921;28;20373;-76
2021/01/09 00:36:54;;;;;;;24.10;20.63;;;;;;;;;;4991026;28;20364;-76
2021/01/09 00:39:20;;;;;;;24.10;19.95;;;;;;;;;;4990773;28;20365;-76
2021/01/09 00:41:46;;;;;;;23.85;20.17;;;;;;;;;;4991502;28;20373;-77
2021/01/09 00:44:12;;;;;;;25.10;20.90;;;;;;;;;;4989734;28;20384;-76
2021/01/09 00:46:39;;;;;;;23.20;20.60;;;;;;;;;;4989832;28;20369;-76
2021/01/09 00:49:04;;;;;;;24.83;20.52;;;;;;;;;;4990993;28;20376;-76
2021/01/09 00:51:31;;;;;;;24.77;20.67;;;;;;;;;;4990986;28;20389;-75
2021/01/09 00:53:57;;;;;;;26.98;21.65;;;;;;;;;;4989769;28;20403;-77
2021/01/09 00:56:23;;;;;;;23.47;20.00;;;;;;;;;;4994158;28;20363;-76
2021/01/09 00:58:49;;;;;;;27.73;20.85;;;;;;;;;;4993237;28;20376;-76
2021/01/09 01:01:15;;;;;;;23.85;20.10;;;;;;;;;;4992905;28;20384;-77
2021/01/09 01:03:42;;;;;;;25.38;20.92;;;;;;;;;;4993226;28;20422;-76
2021/01/09 01:06:09;;;;;;;23.98;20.90;;;;;;;;;;4993170;28;20385;-76
2021/01/09 01:08:35;;;;;;;27.08;21.83;;;;;;;;;;4994399;28;20364;-76
2021/01/09 01:11:01;;;;;;;25.80;21.60;;;;;;;;;;4992540;28;20451;-76
2021/01/09 01:13:27;;;;;;;24.73;20.50;;;;;;;;;;4992835;28;20392;-77
2021/01/09 01:15:53;;;;;;;22.90;19.38;;;;;;;;;;4992766;28;20852;-76
2021/01/09 01:18:23;;;;;;;23.65;20.65;;;;;;;;;;4992980;28;20867;-76
2021/01/09 01:20:49;;;;;;;22.20;19.65;;;;;;;;;;4992654;28;20369;-76
2021/01/09 01:23:15;;;;;;;22.52;19.85;;;;;;;;;;4992774;28;20377;-76
2021/01/09 01:25:41;;;;;;;22.02;19.63;;;;;;;;;;4992630;28;20372;-76
2021/01/09 01:28:07;;;;;;;21.60;19.13;;;;;;;;;;4993889;28;20450;-76
2021/01/09 01:30:33;;;;;;;21.50;19.20;;;;;;;;;;4993582;28;20424;-76
2021/01/09 01:32:59;;;;;;;21.58;19.27;;;;;;;;;;4992460;28;20819;-76
2021/01/09 01:35:25;;;;;;;20.60;18.43;;;;;;;;;;4993904;28;20395;-76
2021/01/09 01:37:52;;;;;;;20.08;17.98;;;;;;;;;;4994026;28;20373;-76
2021/01/09 01:40:18;;;;;;;21.10;18.75;;;;;;;;;;4992055;28;20381;-77
2021/01/09 01:42:44;;;;;;;21.20;18.90;;;;;;;;;;4992215;28;20520;-76
2021/01/09 01:45:10;;;;;;;23.20;19.30;;;;;;;;;;4993597;28;20816;-76
2021/01/09 01:47:37;;;;;;;21.05;17.63;;;;;;;;;;4993607;28;20432;-76
2021/01/09 01:50:04;;;;;;;20.92;18.63;;;;;;;;;;4993435;28;20369;-76
2021/01/09 01:52:30;;;;;;;19.90;17.80;;;;;;;;;;4993556;28;20441;-76
2021/01/09 01:54:56;;;;;;;20.95;18.60;;;;;;;;;;4993584;28;20427;-76
2021/01/09 01:57:22;;;;;;;20.60;18.40;;;;;;;;;;4993422;28;20373;-76
2021/01/09 01:59:48;;;;;;;20.30;18.10;;;;;;;;;;4991778;28;20468;-77
2021/01/09 02:02:14;;;;;;;20.83;18.55;;;;;;;;;;4993287;28;20369;-76
2021/01/09 02:04:41;;;;;;;19.60;17.60;;;;;;;;;;4991849;28;20878;-76
2021/01/09 02:07:15;;;;;;;20.60;18.20;;;;;;;;;;4974842;28;20403;-77
2021/01/09 02:09:43;;;;;;;20.23;17.85;;;;;;;;;;4992799;28;20455;-76
2021/01/09 02:12:14;;;;;;;20.63;18.08;;;;;;;;;;4975201;28;20411;-77
2021/01/09 02:14:44;;;;;;;19.05;17.05;;;;;;;;;;4993291;28;20388;-76
2021/01/09 02:17:12;;;;;;;19.67;17.58;;;;;;;;;;4994830;28;20369;-76
2021/01/09 02:19:39;;;;;;;19.55;17.55;;;;;;;;;;4991620;28;20468;-76
2021/01/09 02:22:06;;;;;;;20.38;18.17;;;;;;;;;;4991937;28;20464;-76
2021/01/09 02:24:32;;;;;;;19.83;17.73;;;;;;;;;;4992905;28;20365;-77
2021/01/09 02:26:58;;;;;;;18.30;16.42;;;;;;;;;;4993074;28;20380;-76
2021/01/09 02:29:25;;;;;;;18.52;16.52;;;;;;;;;;4992627;28;20372;-77
2021/01/09 02:32:11;;;;;;;18.77;16.77;;;;;;;;;;4992685;28;20412;-76
2021/01/09 02:34:40;;;;;;;19.50;17.40;;;;;;;;;;4991238;28;20397;-75
2021/01/09 02:37:06;;;;;;;19.27;17.25;;;;;;;;;;4991373;28;20532;-76
2021/01/09 02:39:33;;;;;;;17.42;15.63;;;;;;;;;;4991327;28;20460;-76
2021/01/09 02:41:59;;;;;;;17.50;15.80;;;;;;;;;;4991110;28;20373;-77
2021/01/09 02:44:25;;;;;;;19.23;17.20;;;;;;;;;;4975118;28;20381;-77
2021/01/09 02:46:51;;;;;;;17.90;16.10;;;;;;;;;;4991268;28;20373;-76
2021/01/09 02:49:17;;;;;;;19.17;17.00;;;;;;;;;;4992239;28;20521;-76
2021/01/09 02:51:43;;;;;;;20.25;17.67;;;;;;;;;;4991212;28;20400;-76
2021/01/09 02:54:09;;;;;;;18.60;16.60;;;;;;;;;;4992491;28;20427;-76
2021/01/09 02:56:35;;;;;;;19.60;16.70;;;;;;;;;;4992252;28;20907;-76
2021/01/09 02:59:02;;;;;;;19.67;17.40;;;;;;;;;;4992146;28;20400;-77
2021/01/09 03:01:29;;;;;;;18.48;16.58;;;;;;;;;;4990873;28;20385;-77
2021/01/09 03:03:55;;;;;;;19.67;17.35;;;;;;;;;;4990959;28;20709;-75
2021/01/09 03:06:21;;;;;;;21.58;18.52;;;;;;;;;;4992229;28;20369;-78
2021/01/09 03:08:47;;;;;;;23.15;19.10;;;;;;;;;;4992211;28;20930;-76
2021/01/09 03:11:13;;;;;;;23.55;19.48;;;;;;;;;;4990582;28;20401;-76
2021/01/09 03:13:39;;;;;;;19.80;17.70;;;;;;;;;;4992328;28;20852;-76
2021/01/09 03:16:05;;;;;;;19.70;17.50;;;;;;;;;;4990617;28;20460;-77
2021/01/09 03:18:31;;;;;;;20.98;17.70;;;;;;;;;;4990290;28;20455;-76
2021/01/09 03:20:57;;;;;;;21.25;18.20;;;;;;;;;;4990254;28;20443;-76
2021/01/09 03:23:23;;;;;;;21.00;18.08;;;;;;;;;;4991807;28;20852;-76
2021/01/09 03:25:49;;;;;;;21.58;18.70;;;;;;;;;;4991861;28;20368;-76
2021/01/09 03:28:15;;;;;;;22.27;18.88;;;;;;;;;;4990312;28;20369;-76
2021/01/09 03:30:41;;;;;;;21.15;18.70;;;;;;;;;;4990129;28;20455;-76
2021/01/09 03:33:07;;;;;;;25.92;21.30;;;;;;;;;;4991902;28;20384;-76
2021/01/09 03:35:33;;;;;;;21.80;19.25;;;;;;;;;;4991659;28;20373;-76
2021/01/09 03:37:59;;;;;;;26.77;21.57;;;;;;;;;;4992216;28;20456;-77
2021/01/09 03:40:25;;;;;;;24.33;20.23;;;;;;;;;;4990218;28;20911;-76
2021/01/09 03:42:51;;;;;;;24.80;20.15;;;;;;;;;;4991603;28;20373;-76
2021/01/09 03:45:17;;;;;;;24.88;19.88;;;;;;;;;;4991670;28;20369;-76
2021/01/09 03:47:43;;;;;;;26.25;20.98;;;;;;;;;;4990131;28;20859;-76
2021/01/09 03:50:09;;;;;;;25.50;20.10;;;;;;;;;;4991228;28;21072;-76
2021/01/09 03:52:35;;;;;;;25.75;20.95;;;;;;;;;;4991566;28;20396;-76
2021/01/09 03:55:01;;;;;;;30.38;22.55;;;;;;;;;;4991443;28;20452;-76
2021/01/09 03:57:27;;;;;;;28.50;22.20;;;;;;;;;;4991437;28;20361;-76
2021/01/09 03:59:53;;;;;;;24.02;20.45;;;;;;;;;;4989793;28;20373;-75
2021/01/09 04:02:19;;;;;;;28.45;21.27;;;;;;;;;;4991358;28;21203;-75
2021/01/09 04:04:45;;;;;;;27.92;21.73;;;;;;;;;;4990046;28;20377;-76
2021/01/09 04:07:11;;;;;;;30.10;23.30;;;;;;;;;;4990079;28;20373;-76
2021/01/09 04:09:37;;;;;;;28.80;22.23;;;;;;;;;;4990968;28;20365;-75
2021/01/09 04:12:03;;;;;;;27.42;21.58;;;;;;;;;;4989839;28;20403;-75
2021/01/09 04:14:29;;;;;;;27.33;21.85;;;;;;;;;;4990123;28;20365;-75
2021/01/09 04:16:56;;;;;;;29.15;22.42;;;;;;;;;;4990234;28;20797;-76
2021/01/09 04:19:22;;;;;;;30.50;22.55;;;;;;;;;;4990970;28;20373;-75
2021/01/09 04:21:52;;;;;;;30.70;23.17;;;;;;;;;;4990087;28;20918;-76
2021/01/09 04:24:21;;;;;;;34.95;24.35;;;;;;;;;;4991486;28;20415;-76
2021/01/09 04:26:54;;;;;;;33.10;24.43;;;;;;;;;;4973696;28;20379;-75
2021/01/09 04:29:20;;;;;;;33.53;24.35;;;;;;;;;;4990885;28;20743;-76
2021/01/09 04:31:47;;;;;;;35.13;24.80;;;;;;;;;;4994803;28;20443;-76
2021/01/09 04:34:13;;;;;;;35.58;25.33;;;;;;;;;;4993710;28;20408;-75
2021/01/09 04:36:39;;;;;;;35.90;25.90;;;;;;;;;;4993702;28;20377;-75
2021/01/09 04:39:05;;;;;;;33.47;24.47;;;;;;;;;;4994633;28;20369;-75
2021/01/09 04:41:36;;;;;;;34.58;24.60;;;;;;;;;;4994767;28;20397;-75
2021/01/09 04:44:02;;;;;;;29.40;23.13;;;;;;;;;;4994580;28;20368;-76
2021/01/09 04:46:29;;;;;;;32.03;23.00;;;;;;;;;;4993452;28;20868;-75
2021/01/09 04:48:56;;;;;;;31.52;23.27;;;;;;;;;;4993486;28;20385;-75
2021/01/09 04:51:22;;;;;;;26.55;21.00;;;;;;;;;;4994390;28;20918;-75
2021/01/09 04:53:49;;;;;;;28.10;20.90;;;;;;;;;;4993292;28;20409;-76
2021/01/09 04:56:15;;;;;;;30.43;22.23;;;;;;;;;;4994522;28;20369;-76
2021/01/09 04:58:41;;;;;;;28.42;21.58;;;;;;;;;;4994495;28;20407;-76
2021/01/09 05:01:07;;;;;;;28.60;21.50;;;;;;;;;;4994570;28;20401;-75
2021/01/09 05:03:34;;;;;;;22.23;18.10;;;;;;;;;;4994357;28;20373;-75
2021/01/09 05:06:00;;;;;;;16.90;14.75;;;;;;;;;;4994497;28;20919;-75
2021/01/09 05:08:26;;;;;;;18.33;15.02;;;;;;;;;;4993003;28;20849;-75
2021/01/09 05:10:53;;;;;;;16.52;14.68;;;;;;;;;;4994015;28;20444;-75
2021/01/09 05:13:22;;;;;;;15.30;13.40;;;;;;;;;;4993018;28;20396;-75
2021/01/09 05:15:48;;;;;;;16.13;14.32;;;;;;;;;;4994853;28;20373;-75
2021/01/09 05:18:14;;;;;;;15.80;14.13;;;;;;;;;;4994441;28;20356;-75
2021/01/09 05:20:43;;;;;;;15.00;13.40;;;;;;;;;;4994633;28;20456;-76
2021/01/09 05:23:09;;;;;;;14.90;13.30;;;;;;;;;;4994415;28;20435;-75
2021/01/09 05:25:36;;;;;;;15.52;13.25;;;;;;;;;;4994564;28;20396;-76
2021/01/09 05:28:04;;;;;;;14.70;13.13;;;;;;;;;;4992633;28;20872;-75
2021/01/09 05:30:30;;;;;;;14.30;12.80;;;;;;;;;;4994113;28;20365;-75
2021/01/09 05:32:56;;;;;;;14.67;13.17;;;;;;;;;;4994537;28;20491;-75
2021/01/09 05:35:22;;;;;;;14.73;13.13;;;;;;;;;;4994024;28;20368;-76
2021/01/09 05:37:49;;;;;;;14.95;13.40;;;;;;;;;;4992759;28;20459;-76
2021/01/09 05:40:15;;;;;;;14.10;12.10;;;;;;;;;;4992070;28;20377;-76
2021/01/09 05:42:41;;;;;;;14.70;13.20;;;;;;;;;;4992849;28;20377;-76
2021/01/09 05:45:08;;;;;;;15.85;13.95;;;;;;;;;;4992737;28;20373;-75
2021/01/09 05:47:37;;;;;;;15.73;14.02;;;;;;;;;;4994217;28;20369;-75
2021/01/09 05:50:04;;;;;;;15.20;13.47;;;;;;;;;;4994343;28;20371;-76
2021/01/09 05:52:30;;;;;;;15.73;14.00;;;;;;;;;;4992794;28;20542;-75
2021/01/09 05:55:02;;;;;;;15.25;13.65;;;;;;;;;;4992580;28;20463;-75
2021/01/09 05:57:29;;;;;;;16.38;14.63;;;;;;;;;;4994348;28;20381;-75
2021/01/09 05:59:59;;;;;;;17.57;15.27;;;;;;;;;;4992274;28;20856;-75
2021/01/09 06:02:25;;;;;;;16.33;14.35;;;;;;;;;;4992790;28;20443;-75
2021/01/09 06:04:55;;;;;;;17.70;15.40;;;;;;;;;;4993846;28;20391;-75
2021/01/09 06:07:25;;;;;;;16.67;14.90;;;;;;;;;;4992018;28;20369;-76
2021/01/09 06:09:51;;;;;;;17.92;15.80;;;;;;;;;;4993396;28;20371;-76
2021/01/09 06:12:17;;;;;;;16.30;14.20;;;;;;;;;;4993400;28;20760;-75
2021/01/09 06:14:44;;;;;;;16.80;15.00;;;;;;;;;;4991918;28;20392;-75
2021/01/09 06:17:11;;;;;;;17.70;15.40;;;;;;;;;;4991863;28;20539;-75
2021/01/09 06:19:38;;;;;;;17.15;15.27;;;;;;;;;;4991925;28;20369;-75
2021/01/09 06:22:04;;;;;;;16.47;14.27;;;;;;;;;;4992129;28;20505;-76
2021/01/09 06:24:31;;;;;;;17.52;14.95;;;;;;;;;;4993561;28;20866;-76
2021/01/09 06:27:00;;;;;;;17.08;14.88;;;;;;;;;;4991890;28;20373;-76
2021/01/09 06:29:29;;;;;;;17.17;15.35;;;;;;;;;;4992842;28;20372;-75
2021/01/09 06:31:59;;;;;;;17.63;14.80;;;;;;;;;;4991582;28;20389;-75
2021/01/09 06:34:29;;;;;;;18.50;15.37;;;;;;;;;;4992893;28;20377;-76
2021/01/09 06:36:57;;;;;;;20.00;15.70;;;;;;;;;;4991638;28;20464;-75
2021/01/09 06:39:24;;;;;;;17.60;15.32;;;;;;;;;;4992921;28;20369;-76
2021/01/09 06:41:51;;;;;;;16.40;14.60;;;;;;;;;;4991494;28;20376;-76
2021/01/09 06:44:18;;;;;;;17.67;15.32;;;;;;;;;;4991595;28;20864;-76
2021/01/09 06:46:44;;;;;;;19.08;16.45;;;;;;;;;;4991492;28;20404;-77
2021/01/09 06:49:16;;;;;;;18.60;15.75;;;;;;;;;;4992455;28;20361;-76
2021/01/09 06:51:43;;;;;;;18.88;16.33;;;;;;;;;;4992621;28;20401;-76
2021/01/09 06:54:15;;;;;;;20.08;16.80;;;;;;;;;;4992133;28;20396;-77
2021/01/09 06:56:48;;;;;;;20.35;17.55;;;;;;;;;;4991386;28;20389;-76
2021/01/09 06:59:30;;;;;;;21.97;17.23;;;;;;;;;;4992123;28;20420;-76
2021/01/09 07:02:11;;;;;;;19.60;17.02;;;;;;;;;;4992686;28;20365;-76
2021/01/09 07:04:56;;;;;;;20.50;17.60;;;;;;;;;;4992409;28;20888;-76
2021/01/09 07:07:26;;;;;;;21.47;17.00;;;;;;;;;;4992276;28;20455;-76
2021/01/09 07:09:52;;;;;;;20.52;17.05;;;;;;;;;;4991795;28;20377;-76
2021/01/09 07:12:18;;;;;;;21.17;17.90;;;;;;;;;;4990944;28;20423;-76
2021/01/09 07:14:45;;;;;;;19.95;17.00;;;;;;;;;;4990804;28;20457;-76
2021/01/09 07:17:11;;;;;;;22.40;18.58;;;;;;;;;;4990812;28;20373;-75
2021/01/09 07:19:39;;;;;;;21.50;18.50;;;;;;;;;;4991814;28;20383;-76
2021/01/09 07:22:07;;;;;;;22.17;18.27;;;;;;;;;;4990741;28;20446;-75
2021/01/09 07:24:35;;;;;;;21.42;17.63;;;;;;;;;;4990674;28;20369;-76
2021/01/09 07:27:01;;;;;;;21.37;17.53;;;;;;;;;;4992003;28;20404;-76
2021/01/09 07:29:27;;;;;;;21.52;17.65;;;;;;;;;;4990285;28;20872;-76
2021/01/09 07:31:53;;;;;;;20.55;17.67;;;;;;;;;;4991685;28;20404;-75
2021/01/09 07:34:22;;;;;;;22.65;18.27;;;;;;;;;;4990391;28;20483;-75
2021/01/09 07:36:53;;;;;;;20.95;17.33;;;;;;;;;;4991882;28;20373;-76
2021/01/09 07:39:24;;;;;;;25.30;18.88;;;;;;;;;;4990150;28;20373;-76
2021/01/09 07:41:50;;;;;;;22.90;18.07;;;;;;;;;;4990491;28;20383;-75
2021/01/09 07:44:18;;;;;;;22.85;17.42;;;;;;;;;;4991748;28;20369;-75
2021/01/09 07:47:05;;;;;;;26.13;19.30;;;;;;;;;;4991922;28;20766;-75
2021/01/09 07:49:32;;;;;;;23.02;18.08;;;;;;;;;;4991270;28;20435;-76
2021/01/09 07:52:05;;;;;;;27.05;18.85;;;;;;;;;;4991342;28;20937;-75
2021/01/09 07:54:46;;;;;;;23.87;18.43;;;;;;;;;;4991563;28;20469;-76
2021/01/09 07:57:18;;;;;;;24.02;18.30;;;;;;;;;;4991731;28;20939;-76
2021/01/09 07:59:56;;;;;;;27.33;18.97;;;;;;;;;;4989696;28;20420;-75
2021/01/09 08:02:23;;;;;;;29.80;19.50;;;;;;;;;;4991665;28;20439;-76
2021/01/09 08:04:49;;;;;;;30.90;20.80;;;;;;;;;;4992623;28;21174;-75
2021/01/09 08:07:18;;;;;;;23.02;17.33;;;;;;;;;;4995614;28;20848;-76
2021/01/09 08:09:45;;;;;;;29.27;19.30;;;;;;;;;;4995148;28;20360;-76
2021/01/09 08:12:11;;;;;;;27.92;19.60;;;;;;;;;;4995476;28;20399;-75
2021/01/09 08:14:37;;;;;;;29.92;21.05;;;;;;;;;;4994068;28;20393;-76
2021/01/09 08:17:10;;;;;;;27.48;19.52;;;;;;;;;;4994293;28;20371;-76
2021/01/09 08:19:36;;;;;;;24.58;18.23;;;;;;;;;;4995377;28;20380;-76
2021/01/09 08:22:03;;;;;;;27.93;19.97;;;;;;;;;;4995305;28;20372;-76
2021/01/09 08:24:29;;;;;;;25.98;18.73;;;;;;;;;;4995220;28;20442;-76
2021/01/09 08:26:56;;;;;;;26.00;18.70;;;;;;;;;;4993810;28;20940;-78
2021/01/09 08:29:22;;;;;;;24.35;18.15;;;;;;;;;;4995532;28;20365;-76
2021/01/09 08:31:49;;;;;;;26.27;18.30;;;;;;;;;;4994376;28;20411;-75
2021/01/09 08:34:15;;;;;;;26.33;18.73;;;;;;;;;;4994315;28;20396;-77
2021/01/09 08:36:42;;;;;;;25.33;18.73;;;;;;;;;;4995006;28;20360;-77
2021/01/09 08:39:08;;;;;;;25.73;18.90;;;;;;;;;;4993462;28;20452;-77
2021/01/09 08:41:40;;;;;;;27.13;19.97;;;;;;;;;;4995075;28;20365;-76
2021/01/09 08:44:10;;;;;;;29.83;21.50;;;;;;;;;;4993984;28;20368;-75
2021/01/09 08:46:37;;;;;;;30.02;23.58;;;;;;;;;;4995513;28;20913;-74
2021/01/09 08:49:04;;;;;;;30.40;23.57;;;;;;;;;;4994034;28;20455;-76
2021/01/09 08:51:32;;;;;;;30.17;23.23;;;;;;;;;;4995262;28;20396;-75
2021/01/09 08:54:03;;;;;;;30.23;22.10;;;;;;;;;;4993503;28;20396;-76
2021/01/09 08:56:29;;;;;;;29.60;22.73;;;;;;;;;;4993873;28;20377;-75
2021/01/09 08:59:00;;;;;;;27.27;21.37;;;;;;;;;;4993729;28;20373;-76
2021/01/09 09:01:29;;;;;;;27.60;22.30;;;;;;;;;;4977298;28;20384;-76
2021/01/09 09:03:56;;;;;;;27.27;21.02;;;;;;;;;;4993658;28;20705;-74
2021/01/09 09:06:23;;;;;;;26.92;20.77;;;;;;;;;;4977775;28;20919;-76
2021/01/09 09:08:49;;;;;;;29.60;21.25;;;;;;;;;;4994722;28;20408;-75
2021/01/09 09:11:16;;;;;;;29.00;21.35;;;;;;;;;;4994839;28;20475;-75
2021/01/09 09:13:42;;;;;;;30.35;21.88;;;;;;;;;;4993780;28;20384;-76
2021/01/09 09:16:18;;;;;;;28.90;21.58;;;;;;;;;;4993050;28;20365;-76
2021/01/09 09:18:45;;;;;;;28.23;21.35;;;;;;;;;;4977384;28;20388;-76
2021/01/09 09:21:11;;;;;;;28.83;21.92;;;;;;;;;;4992819;28;20371;-75
2021/01/09 09:23:37;;;;;;;30.60;22.05;;;;;;;;;;4992860;28;20385;-76
2021/01/09 09:26:13;;;;;;;29.80;21.80;;;;;;;;;;4993570;28;20365;-76
2021/01/09 09:28:52;;;;;;;31.33;22.97;;;;;;;;;;4993242;28;20401;-75
2021/01/09 09:31:28;;;;;;;31.55;22.35;;;;;;;;;;4993767;28;20491;-75
2021/01/09 09:34:00;;;;;;;29.10;21.27;;;;;;;;;;4994040;28;20416;-75
2021/01/09 09:36:26;;;;;;;31.13;23.05;;;;;;;;;;4994055;28;20361;-74
2021/01/09 09:38:52;;;;;;;31.35;23.02;;;;;;;;;;4993828;28;20737;-75
2021/01/09 09:41:18;;;;;;;30.92;22.73;;;;;;;;;;4992240;28;20381;-75
2021/01/09 09:43:58;;;;;;;31.60;22.95;;;;;;;;;;4999492;28;20416;-80
2021/01/09 09:46:24;;;;;;;32.35;23.55;;;;;;;;;;5001581;28;20738;-81
2021/01/09 09:48:50;;;;;;;31.80;23.30;;;;;;;;;;5013558;28;20913;-81
2021/01/09 09:51:18;;;;;;;33.40;24.20;;;;;;;;;;4993130;28;20439;-82
2021/01/09 09:53:52;;;;;;;33.83;23.50;;;;;;;;;;4992210;28;20894;-82
2021/01/09 09:56:19;;;;;;;33.50;23.08;;;;;;;;;;4993667;28;20959;-77
2021/01/09 09:58:46;;;;;;;32.30;23.55;;;;;;;;;;4992900;28;20409;-79
2021/01/09 10:01:16;;;;;;;28.57;22.10;;;;;;;;;;5002547;28;20427;-79
2021/01/09 10:03:42;;;;;;;31.83;23.42;;;;;;;;;;5004960;28;20784;-78
2021/01/09 10:06:09;;;;;;;33.60;23.75;;;;;;;;;;5006732;28;20464;-81
2021/01/09 10:08:35;;;;;;;31.83;23.40;;;;;;;;;;5004344;28;20471;-79
2021/01/09 10:11:02;;;;;;;30.85;23.17;;;;;;;;;;5005561;28;20425;-79
2021/01/09 10:13:29;;;;;;;34.05;23.67;;;;;;;;;;5001593;28;20459;-78
2021/01/09 10:15:56;;;;;;;33.47;24.05;;;;;;;;;;5002884;28;20469;-77
2021/01/09 10:18:26;;;;;;;36.20;24.70;;;;;;;;;;4990927;28;20886;-78
2021/01/09 10:20:53;;;;;;;32.35;23.35;;;;;;;;;;5000503;28;20871;-82
2021/01/09 10:23:19;;;;;;;31.83;23.60;;;;;;;;;;4999498;28;20433;-78
2021/01/09 10:25:46;;;;;;;31.27;23.02;;;;;;;;;;5002718;28;20383;-79
2021/01/09 10:28:12;;;;;;;32.38;22.92;;;;;;;;;;5000614;28;20398;-81
2021/01/09 10:30:38;;;;;;;29.57;21.17;;;;;;;;;;5002282;28;20371;-78
2021/01/09 10:33:05;;;;;;;31.58;22.10;;;;;;;;;;5005491;28;20459;-79
2021/01/09 10:35:31;;;;;;;28.48;20.95;;;;;;;;;;5004122;28;20377;-80
2021/01/09 10:37:58;;;;;;;29.25;21.20;;;;;;;;;;5005416;28;20723;-82
2021/01/09 10:40:24;;;;;;;28.35;20.13;;;;;;;;;;5004115;28;20424;-80
2021/01/09 10:42:50;;;;;;;25.70;19.10;;;;;;;;;;5001050;28;20864;-81
2021/01/09 10:45:17;;;;;;;28.27;20.35;;;;;;;;;;5010225;28;20362;-80
2021/01/09 10:47:43;;;;;;;26.20;18.80;;;;;;;;;;5010766;28;20861;-80
2021/01/09 10:50:10;;;;;;;25.17;19.05;;;;;;;;;;5011997;28;20861;-82
2021/01/09 10:52:36;;;;;;;27.40;20.23;;;;;;;;;;5011831;28;20545;-82
2021/01/09 10:55:08;;;;;;;28.38;20.38;;;;;;;;;;5011487;28;20383;-82
2021/01/09 10:57:34;;;;;;;25.77;19.08;;;;;;;;;;5011824;28;20375;-82
2021/01/09 11:00:01;;;;;;;27.30;20.05;;;;;;;;;;5011268;28;20413;-81
2021/01/09 11:02:28;;;;;;;29.92;21.67;;;;;;;;;;5012292;28;20419;-86
2021/01/09 11:04:55;;;;;;;32.65;21.77;;;;;;;;;;5012337;28;20468;-87
2021/01/09 11:07:21;;;;;;;31.75;20.77;;;;;;;;;;5012036;28;20378;-85
2021/01/09 11:09:47;;;;;;;29.58;21.17;;;;;;;;;;4994747;28;20375;-87
2021/01/09 11:12:13;;;;;;;32.97;22.30;;;;;;;;;;5011937;28;20801;-81
2021/01/09 11:14:39;;;;;;;29.38;21.23;;;;;;;;;;5012538;28;20375;-83
2021/01/09 11:17:05;;;;;;;32.60;22.08;;;;;;;;;;5012068;28;20465;-86
2021/01/09 11:19:31;;;;;;;33.40;22.95;;;;;;;;;;5011689;28;20904;-84
2021/01/09 11:22:03;;;;;;;34.25;23.67;;;;;;;;;;5013006;28;20367;-84
2021/01/09 11:24:30;;;;;;;33.72;23.83;;;;;;;;;;5011914;28;20426;-83
2021/01/09 11:27:02;;;;;;;33.00;24.27;;;;;;;;;;5011561;28;20371;-83
2021/01/09 11:29:29;;;;;;;35.90;25.17;;;;;;;;;;5011503;28;20375;-83
2021/01/09 11:32:01;;;;;;;31.08;25.23;;;;;;;;;;5013331;28;20402;-83
2021/01/09 11:34:28;;;;;;;32.13;25.02;;;;;;;;;;5011483;28;20387;-83
2021/01/09 11:36:54;;;;;;;32.78;25.50;;;;;;;;;;5012888;28;20368;-83
2021/01/09 11:39:20;;;;;;;36.03;27.98;;;;;;;;;;5011094;28;20383;-83
2021/01/09 11:41:47;;;;;;;32.77;26.10;;;;;;;;;;5011443;28;20391;-83
2021/01/09 11:44:14;;;;;;;30.77;26.17;;;;;;;;;;5011445;28;20391;-84
2021/01/09 11:46:40;;;;;;;34.97;27.73;;;;;;;;;;5012569;28;20384;-83
2021/01/09 11:49:06;;;;;;;32.13;26.60;;;;;;;;;;5013026;28;20379;-84
2021/01/09 11:51:32;;;;;;;34.13;27.63;;;;;;;;;;5012581;28;20394;-83
2021/01/09 11:53:58;;;;;;;31.87;27.00;;;;;;;;;;5011476;28;20777;-83
2021/01/09 11:56:24;;;;;;;30.42;25.38;;;;;;;;;;5011534;28;20375;-86
2021/01/09 11:58:50;;;;;;;31.73;26.50;;;;;;;;;;5011549;28;20411;-86
2021/01/09 12:01:19;;;;;;;31.08;25.90;;;;;;;;;;5011018;28;20449;-85
2021/01/09 12:03:45;;;;;;;30.65;25.52;;;;;;;;;;5012596;28;20371;-85
2021/01/09 12:06:16;;;;;;;30.35;25.25;;;;;;;;;;5012270;28;20367;-85
2021/01/09 12:08:42;;;;;;;31.48;26.15;;;;;;;;;;5011811;28;20770;-87
2021/01/09 12:11:11;;;;;;;31.60;26.23;;;;;;;;;;5011580;28;20395;-86
2021/01/09 12:13:40;;;;;;;30.40;25.48;;;;;;;;;;5009798;28;20394;-89
2021/01/09 12:16:06;;;;;;;29.48;24.60;;;;;;;;;;4992734;28;20368;-86
2021/01/09 12:18:33;;;;;;;29.80;24.33;;;;;;;;;;4991687;28;20408;-88
2021/01/09 12:21:06;;;;;;;28.65;24.20;;;;;;;;;;4993523;28;20466;-87
2021/01/09 12:23:34;;;;;;;30.90;25.43;;;;;;;;;;4998855;28;20392;-86
2021/01/09 12:26:06;;;;;;;30.63;25.30;;;;;;;;;;4992443;28;20378;-87
2021/01/09 12:28:36;;;;;;;30.55;24.98;;;;;;;;;;5008839;28;20368;-87
2021/01/09 12:31:02;;;;;;;28.30;23.27;;;;;;;;;;5010758;28;20371;-86
2021/01/09 12:33:29;;;;;;;29.40;24.03;;;;;;;;;;5011964;28;20561;-86
2021/01/09 12:36:16;;;;;;;28.83;23.60;;;;;;;;;;5012234;28;20448;-86
2021/01/09 12:38:43;;;;;;;30.08;24.63;;;;;;;;;;5011122;28;20528;-87
2021/01/09 12:41:15;;;;;;;30.27;24.05;;;;;;;;;;5012259;28;20364;-86
2021/01/09 12:43:46;;;;;;;29.45;24.38;;;;;;;;;;5003705;28;20363;-85
2021/01/09 12:46:13;;;;;;;28.95;23.58;;;;;;;;;;5001093;28;20373;-86
2021/01/09 12:48:39;;;;;;;29.77;24.27;;;;;;;;;;4991446;28;20443;-85
2021/01/09 12:51:20;;;;;;;31.48;24.05;;;;;;;;;;4992365;28;20385;-85
2021/01/09 12:53:48;;;;;;;28.00;23.30;;;;;;;;;;4995392;28;20479;-84
2021/01/09 12:56:17;;;;;;;28.80;23.38;;;;;;;;;;5011686;28;20467;-86
2021/01/09 12:59:04;;;;;;;30.67;23.65;;;;;;;;;;5012698;28;20374;-85
2021/01/09 13:01:40;;;;;;;29.60;23.17;;;;;;;;;;5015847;28;20368;-86
2021/01/09 13:04:06;;;;;;;30.65;24.73;;;;;;;;;;5015180;28;20379;-88
2021/01/09 13:06:38;;;;;;;31.92;25.35;;;;;;;;;;5016025;28;20375;-89
2021/01/09 13:09:29;;;;;;;32.15;25.63;;;;;;;;;;5014755;28;20383;-87
2021/01/09 13:11:58;;;;;;;31.70;25.73;;;;;;;;;;4994502;28;20400;-86
2021/01/09 13:14:30;;;;;;;34.15;25.98;;;;;;;;;;5006050;28;20391;-86
2021/01/09 13:17:04;;;;;;;31.97;25.80;;;;;;;;;;4997805;28;20460;-86
2021/01/09 13:19:36;;;;;;;30.65;25.25;;;;;;;;;;4994217;28;20455;-88
2021/01/09 13:22:02;;;;;;;30.25;25.17;;;;;;;;;;4998529;28;20387;-85
2021/01/09 13:24:29;;;;;;;27.73;23.77;;;;;;;;;;5001619;28;20459;-88
2021/01/09 13:27:03;;;;;;;31.30;24.58;;;;;;;;;;5014120;28;20395;-86
2021/01/09 13:29:29;;;;;;;30.67;25.08;;;;;;;;;;5006440;28;20442;-87
2021/01/09 13:32:00;;;;;;;30.92;25.15;;;;;;;;;;5003742;28;20785;-86
2021/01/09 13:34:32;;;;;;;29.33;24.02;;;;;;;;;;4997426;28;20419;-90
2021/01/09 13:37:04;;;;;;;30.55;24.13;;;;;;;;;;4993923;28;20376;-90
2021/01/09 13:39:34;;;;;;;28.95;23.42;;;;;;;;;;4995030;28;20381;-91
2021/01/09 13:42:08;;;;;;;26.55;22.45;;;;;;;;;;4996047;28;20369;-90
2021/01/09 13:44:34;;;;;;;29.95;24.38;;;;;;;;;;4994963;28;20435;-90
2021/01/09 13:47:00;;;;;;;27.42;21.88;;;;;;;;;;4994883;28;20384;-88
2021/01/09 13:49:26;;;;;;;25.58;20.98;;;;;;;;;;4994283;28;20380;-85
2021/01/09 13:51:53;;;;;;;26.83;21.15;;;;;;;;;;4994454;28;20467;-87
2021/01/09 13:54:20;;;;;;;26.90;21.60;;;;;;;;;;4994048;28;20389;-81
2021/01/09 13:56:46;;;;;;;27.75;21.23;;;;;;;;;;4995037;28;20389;-85
2021/01/09 13:59:21;;;;;;;27.73;21.08;;;;;;;;;;5011116;28;20375;-87
2021/01/09 14:01:48;;;;;;;27.27;22.17;;;;;;;;;;5012765;28;20463;-86
2021/01/09 14:04:14;;;;;;;30.15;23.08;;;;;;;;;;5014542;28;20368;-87
2021/01/09 14:06:41;;;;;;;25.45;20.90;;;;;;;;;;5014404;28;20391;-85
2021/01/09 14:09:08;;;;;;;28.70;22.00;;;;;;;;;;5011964;28;20382;-88
2021/01/09 14:11:34;;;;;;;25.65;20.85;;;;;;;;;;5011867;28;20399;-84
2021/01/09 14:14:02;;;;;;;27.33;21.33;;;;;;;;;;5012816;28;20838;-84
2021/01/09 14:16:29;;;;;;;24.10;19.73;;;;;;;;;;5013667;28;20763;-87
2021/01/09 14:18:56;;;;;;;27.10;21.00;;;;;;;;;;5010856;28;20437;-86